sensor_id;sensor_type;location;lat;lon;timestamp;temperature;humidity
16517;DHT22;8371;52.272;9.746;2023-07-20T00:01:58;17.80;60.70
16517;DHT22;8371;52.272;9.746;2023-07-20T00:04:23;17.80;60.80
16517;DHT22;8371;52.272;9.746;2023-07-20T00:06:49;17.70;60.90
16517;DHT22;8371;52.272;9.746;2023-07-20T00:09:15;17.70;60.90
16517;DHT22;8371;52.272;9.746;2023-07-20T00:11:48;17.70;61.00
16517;DHT22;8371;52.272;9.746;2023-07-20T00:14:10;17.70;61.00
16517;DHT22;8371;52.272;9.746;2023-07-20T00:16:36;17.70;61.00
16517;DHT22;8371;52.272;9.746;2023-07-20T00:19:01;17.70;61.10
16517;DHT22;8371;52.272;9.746;2023-07-20T00:21:27;17.70;61.10
16517;DHT22;8371;52.272;9.746;2023-07-20T00:23:53;17.60;61.00
16517;DHT22;8371;52.272;9.746;2023-07-20T00:26:19;17.60;60.90
16517;DHT22;8371;52.272;9.746;2023-07-20T00:28:45;17.60;61.00
16517;DHT22;8371;52.272;9.746;2023-07-20T00:31:10;17.50;61.00
16517;DHT22;8371;52.272;9.746;2023-07-20T00:33:36;17.40;61.40
16517;DHT22;8371;52.272;9.746;2023-07-20T00:36:02;17.40;61.10
16517;DHT22;8371;52.272;9.746;2023-07-20T00:38:27;17.30;61.10
16517;DHT22;8371;52.272;9.746;2023-07-20T00:40:53;17.20;61.20
16517;DHT22;8371;52.272;9.746;2023-07-20T00:43:19;17.20;61.40
16517;DHT22;8371;52.272;9.746;2023-07-20T00:45:45;17.10;61.40
16517;DHT22;8371;52.272;9.746;2023-07-20T00:48:11;17.00;61.60
16517;DHT22;8371;52.272;9.746;2023-07-20T00:50:39;17.00;61.70
16517;DHT22;8371;52.272;9.746;2023-07-20T00:53:06;16.90;61.90
16517;DHT22;8371;52.272;9.746;2023-07-20T00:55:33;16.90;62.00
16517;DHT22;8371;52.272;9.746;2023-07-20T00:57:59;16.90;62.20
16517;DHT22;8371;52.272;9.746;2023-07-20T01:00:25;16.80;62.40
16517;DHT22;8371;52.272;9.746;2023-07-20T01:02:51;16.70;62.40
16517;DHT22;8371;52.272;9.746;2023-07-20T01:05:17;16.70;62.50
16517;DHT22;8371;52.272;9.746;2023-07-20T01:10:23;16.60;62.70
16517;DHT22;8371;52.272;9.746;2023-07-20T01:12:43;16.60;62.80
16517;DHT22;8371;52.272;9.746;2023-07-20T01:15:09;16.60;63.20
16517;DHT22;8371;52.272;9.746;2023-07-20T01:17:36;16.60;63.00
16517;DHT22;8371;52.272;9.746;2023-07-20T01:20:02;16.50;63.10
16517;DHT22;8371;52.272;9.746;2023-07-20T01:22:38;16.50;63.20
16517;DHT22;8371;52.272;9.746;2023-07-20T01:33:16;16.40;63.40
16517;DHT22;8371;52.272;9.746;2023-07-20T01:35:45;16.40;63.50
16517;DHT22;8371;52.272;9.746;2023-07-20T01:38:12;16.40;63.80
16517;DHT22;8371;52.272;9.746;2023-07-20T01:40:40;16.40;63.90
16517;DHT22;8371;52.272;9.746;2023-07-20T01:43:06;16.40;64.00
16517;DHT22;8371;52.272;9.746;2023-07-20T01:45:32;16.40;64.00
16517;DHT22;8371;52.272;9.746;2023-07-20T01:47:57;16.40;64.00
16517;DHT22;8371;52.272;9.746;2023-07-20T01:50:23;16.40;64.10
16517;DHT22;8371;52.272;9.746;2023-07-20T01:52:49;16.40;64.10
16517;DHT22;8371;52.272;9.746;2023-07-20T01:55:14;16.40;64.20
16517;DHT22;8371;52.272;9.746;2023-07-20T01:57:40;16.40;64.20
16517;DHT22;8371;52.272;9.746;2023-07-20T02:00:06;16.50;64.40
16517;DHT22;8371;52.272;9.746;2023-07-20T02:02:34;16.50;64.40
16517;DHT22;8371;52.272;9.746;2023-07-20T02:05:00;16.40;64.50
16517;DHT22;8371;52.272;9.746;2023-07-20T02:07:25;16.50;64.50
16517;DHT22;8371;52.272;9.746;2023-07-20T02:09:51;16.50;64.50
16517;DHT22;8371;52.272;9.746;2023-07-20T02:12:17;16.50;64.50
16517;DHT22;8371;52.272;9.746;2023-07-20T02:14:43;16.60;64.50
16517;DHT22;8371;52.272;9.746;2023-07-20T02:17:08;16.60;64.60
16517;DHT22;8371;52.272;9.746;2023-07-20T02:19:36;16.60;64.50
16517;DHT22;8371;52.272;9.746;2023-07-20T02:22:02;16.60;64.50
16517;DHT22;8371;52.272;9.746;2023-07-20T02:24:28;16.60;64.50
16517;DHT22;8371;52.272;9.746;2023-07-20T02:26:54;16.60;65.00
16517;DHT22;8371;52.272;9.746;2023-07-20T02:29:19;16.60;64.60
16517;DHT22;8371;52.272;9.746;2023-07-20T02:31:45;16.60;64.50
16517;DHT22;8371;52.272;9.746;2023-07-20T02:34:11;16.50;64.50
16517;DHT22;8371;52.272;9.746;2023-07-20T02:36:36;16.50;64.60
16517;DHT22;8371;52.272;9.746;2023-07-20T02:39:03;16.50;64.70
16517;DHT22;8371;52.272;9.746;2023-07-20T02:41:33;16.50;64.60
16517;DHT22;8371;52.272;9.746;2023-07-20T02:43:59;16.50;64.60
16517;DHT22;8371;52.272;9.746;2023-07-20T02:46:24;16.50;64.60
16517;DHT22;8371;52.272;9.746;2023-07-20T02:48:50;16.40;64.50
16517;DHT22;8371;52.272;9.746;2023-07-20T02:51:16;16.40;64.50
16517;DHT22;8371;52.272;9.746;2023-07-20T02:53:41;16.40;64.60
16517;DHT22;8371;52.272;9.746;2023-07-20T02:56:07;16.30;64.60
16517;DHT22;8371;52.272;9.746;2023-07-20T02:58:34;16.30;64.80
16517;DHT22;8371;52.272;9.746;2023-07-20T03:01:02;16.30;65.00
16517;DHT22;8371;52.272;9.746;2023-07-20T03:03:28;16.30;65.10
16517;DHT22;8371;52.272;9.746;2023-07-20T03:05:53;16.30;65.40
16517;DHT22;8371;52.272;9.746;2023-07-20T03:08:21;16.30;65.40
16517;DHT22;8371;52.272;9.746;2023-07-20T03:10:47;16.30;65.50
16517;DHT22;8371;52.272;9.746;2023-07-20T03:13:13;16.30;65.70
16517;DHT22;8371;52.272;9.746;2023-07-20T03:15:39;16.30;65.80
16517;DHT22;8371;52.272;9.746;2023-07-20T03:18:05;16.30;66.00
16517;DHT22;8371;52.272;9.746;2023-07-20T03:20:31;16.40;66.20
16517;DHT22;8371;52.272;9.746;2023-07-20T03:22:57;16.40;66.30
16517;DHT22;8371;52.272;9.746;2023-07-20T03:25:22;16.50;66.40
16517;DHT22;8371;52.272;9.746;2023-07-20T03:27:48;16.50;66.40
16517;DHT22;8371;52.272;9.746;2023-07-20T03:30:14;16.50;66.50
16517;DHT22;8371;52.272;9.746;2023-07-20T03:32:40;16.60;66.60
16517;DHT22;8371;52.272;9.746;2023-07-20T03:35:06;16.60;66.60
16517;DHT22;8371;52.272;9.746;2023-07-20T03:37:32;16.70;66.80
16517;DHT22;8371;52.272;9.746;2023-07-20T03:39:59;16.70;66.80
16517;DHT22;8371;52.272;9.746;2023-07-20T03:42:25;16.80;66.90
16517;DHT22;8371;52.272;9.746;2023-07-20T03:44:51;16.80;66.80
16517;DHT22;8371;52.272;9.746;2023-07-20T03:47:17;16.80;66.80
16517;DHT22;8371;52.272;9.746;2023-07-20T03:49:42;16.90;66.90
16517;DHT22;8371;52.272;9.746;2023-07-20T03:52:08;16.90;67.10
16517;DHT22;8371;52.272;9.746;2023-07-20T03:54:34;17.00;67.00
16517;DHT22;8371;52.272;9.746;2023-07-20T03:57:00;17.00;67.00
16517;DHT22;8371;52.272;9.746;2023-07-20T03:59:26;17.00;67.00
16517;DHT22;8371;52.272;9.746;2023-07-20T04:01:52;17.10;67.20
16517;DHT22;8371;52.272;9.746;2023-07-20T04:04:17;17.10;67.20
16517;DHT22;8371;52.272;9.746;2023-07-20T04:06:43;17.10;67.30
16517;DHT22;8371;52.272;9.746;2023-07-20T04:09:12;17.10;67.30
16517;DHT22;8371;52.272;9.746;2023-07-20T04:11:38;17.20;67.50
16517;DHT22;8371;52.272;9.746;2023-07-20T04:14:04;17.20;67.50
16517;DHT22;8371;52.272;9.746;2023-07-20T04:16:30;17.20;67.50
16517;DHT22;8371;52.272;9.746;2023-07-20T04:18:56;17.20;67.60
16517;DHT22;8371;52.272;9.746;2023-07-20T04:21:22;17.30;67.70
16517;DHT22;8371;52.272;9.746;2023-07-20T04:23:48;17.30;67.70
16517;DHT22;8371;52.272;9.746;2023-07-20T04:26:13;17.40;67.90
16517;DHT22;8371;52.272;9.746;2023-07-20T04:28:42;17.30;67.70
16517;DHT22;8371;52.272;9.746;2023-07-20T04:31:12;17.40;67.80
16517;DHT22;8371;52.272;9.746;2023-07-20T04:33:38;17.40;67.90
16517;DHT22;8371;52.272;9.746;2023-07-20T04:36:04;17.40;67.90
16517;DHT22;8371;52.272;9.746;2023-07-20T04:38:30;17.40;67.60
16517;DHT22;8371;52.272;9.746;2023-07-20T04:40:56;17.40;68.40
16517;DHT22;8371;52.272;9.746;2023-07-20T04:43:21;17.40;67.70
16517;DHT22;8371;52.272;9.746;2023-07-20T04:45:47;17.30;67.70
16517;DHT22;8371;52.272;9.746;2023-07-20T04:48:14;17.30;67.80
16517;DHT22;8371;52.272;9.746;2023-07-20T04:50:42;17.30;67.90
16517;DHT22;8371;52.272;9.746;2023-07-20T04:53:12;17.30;68.00
16517;DHT22;8371;52.272;9.746;2023-07-20T04:55:38;17.30;68.00
16517;DHT22;8371;52.272;9.746;2023-07-20T04:58:05;17.20;68.00
16517;DHT22;8371;52.272;9.746;2023-07-20T05:00:33;17.20;68.10
16517;DHT22;8371;52.272;9.746;2023-07-20T05:02:59;17.20;68.20
16517;DHT22;8371;52.272;9.746;2023-07-20T05:05:24;17.20;68.30
16517;DHT22;8371;52.272;9.746;2023-07-20T05:07:50;17.30;68.60
16517;DHT22;8371;52.272;9.746;2023-07-20T05:10:16;17.30;68.60
16517;DHT22;8371;52.272;9.746;2023-07-20T05:12:42;17.30;68.60
16517;DHT22;8371;52.272;9.746;2023-07-20T05:15:08;17.30;68.60
16517;DHT22;8371;52.272;9.746;2023-07-20T05:17:34;17.30;68.80
16517;DHT22;8371;52.272;9.746;2023-07-20T05:19:59;17.30;68.80
16517;DHT22;8371;52.272;9.746;2023-07-20T05:22:25;17.40;69.10
16517;DHT22;8371;52.272;9.746;2023-07-20T05:24:51;17.40;69.20
16517;DHT22;8371;52.272;9.746;2023-07-20T05:27:16;17.40;69.30
16517;DHT22;8371;52.272;9.746;2023-07-20T05:29:46;17.50;69.60
16517;DHT22;8371;52.272;9.746;2023-07-20T05:32:12;17.50;69.50
16517;DHT22;8371;52.272;9.746;2023-07-20T05:34:38;17.50;69.50
16517;DHT22;8371;52.272;9.746;2023-07-20T05:37:04;17.60;69.50
16517;DHT22;8371;52.272;9.746;2023-07-20T05:39:32;17.60;69.50
16517;DHT22;8371;52.272;9.746;2023-07-20T05:41:58;17.60;69.60
16517;DHT22;8371;52.272;9.746;2023-07-20T05:44:24;17.60;69.90
16517;DHT22;8371;52.272;9.746;2023-07-20T05:46:49;17.60;69.70
16517;DHT22;8371;52.272;9.746;2023-07-20T05:49:15;17.70;69.70
16517;DHT22;8371;52.272;9.746;2023-07-20T05:51:41;17.70;69.60
16517;DHT22;8371;52.272;9.746;2023-07-20T05:54:06;17.70;69.50
16517;DHT22;8371;52.272;9.746;2023-07-20T05:56:32;17.70;69.70
16517;DHT22;8371;52.272;9.746;2023-07-20T05:58:58;17.70;69.60
16517;DHT22;8371;52.272;9.746;2023-07-20T06:01:24;17.70;69.60
16517;DHT22;8371;52.272;9.746;2023-07-20T06:03:51;17.70;69.70
16517;DHT22;8371;52.272;9.746;2023-07-20T06:06:17;17.70;69.70
16517;DHT22;8371;52.272;9.746;2023-07-20T06:08:43;17.70;69.90
16517;DHT22;8371;52.272;9.746;2023-07-20T06:11:09;17.80;70.20
16517;DHT22;8371;52.272;9.746;2023-07-20T06:13:35;17.80;70.30
16517;DHT22;8371;52.272;9.746;2023-07-20T06:16:01;17.80;70.40
16517;DHT22;8371;52.272;9.746;2023-07-20T06:18:27;17.80;70.50
16517;DHT22;8371;52.272;9.746;2023-07-20T06:20:52;17.90;70.40
16517;DHT22;8371;52.272;9.746;2023-07-20T06:23:19;17.90;70.50
16517;DHT22;8371;52.272;9.746;2023-07-20T06:25:45;18.00;70.60
16517;DHT22;8371;52.272;9.746;2023-07-20T06:28:11;18.00;70.60
16517;DHT22;8371;52.272;9.746;2023-07-20T06:30:36;18.00;70.60
16517;DHT22;8371;52.272;9.746;2023-07-20T06:33:02;18.10;70.60
16517;DHT22;8371;52.272;9.746;2023-07-20T06:35:28;18.20;71.70
16517;DHT22;8371;52.272;9.746;2023-07-20T06:37:54;18.20;70.80
16517;DHT22;8371;52.272;9.746;2023-07-20T06:40:20;18.30;70.90
16517;DHT22;8371;52.272;9.746;2023-07-20T06:42:46;18.40;70.80
16517;DHT22;8371;52.272;9.746;2023-07-20T06:45:11;18.40;70.80
16517;DHT22;8371;52.272;9.746;2023-07-20T06:47:38;18.50;70.80
16517;DHT22;8371;52.272;9.746;2023-07-20T06:50:06;18.60;70.70
16517;DHT22;8371;52.272;9.746;2023-07-20T06:52:32;18.70;70.40
16517;DHT22;8371;52.272;9.746;2023-07-20T06:54:58;18.80;70.40
16517;DHT22;8371;52.272;9.746;2023-07-20T06:57:25;18.90;70.30
16517;DHT22;8371;52.272;9.746;2023-07-20T06:59:50;19.00;70.20
16517;DHT22;8371;52.272;9.746;2023-07-20T07:02:16;19.00;69.70
16517;DHT22;8371;52.272;9.746;2023-07-20T07:04:42;19.00;69.40
16517;DHT22;8371;52.272;9.746;2023-07-20T07:07:08;19.10;69.40
16517;DHT22;8371;52.272;9.746;2023-07-20T07:09:35;19.20;69.70
16517;DHT22;8371;52.272;9.746;2023-07-20T07:12:01;19.20;69.60
16517;DHT22;8371;52.272;9.746;2023-07-20T07:14:26;19.30;69.40
16517;DHT22;8371;52.272;9.746;2023-07-20T07:16:52;19.40;69.80
16517;DHT22;8371;52.272;9.746;2023-07-20T07:19:18;19.50;69.70
16517;DHT22;8371;52.272;9.746;2023-07-20T07:21:43;19.60;70.30
16517;DHT22;8371;52.272;9.746;2023-07-20T07:24:09;19.70;70.80
16517;DHT22;8371;52.272;9.746;2023-07-20T07:26:36;19.90;69.80
16517;DHT22;8371;52.272;9.746;2023-07-20T07:29:03;20.00;69.30
16517;DHT22;8371;52.272;9.746;2023-07-20T07:31:29;20.20;69.30
16517;DHT22;8371;52.272;9.746;2023-07-20T07:33:56;20.30;69.50
16517;DHT22;8371;52.272;9.746;2023-07-20T07:36:22;20.50;69.40
16517;DHT22;8371;52.272;9.746;2023-07-20T07:38:50;20.60;69.50
16517;DHT22;8371;52.272;9.746;2023-07-20T07:41:15;21.00;69.40
16517;DHT22;8371;52.272;9.746;2023-07-20T07:43:41;21.20;68.70
16517;DHT22;8371;52.272;9.746;2023-07-20T07:46:07;21.40;68.60
16517;DHT22;8371;52.272;9.746;2023-07-20T07:48:33;21.50;67.20
16517;DHT22;8371;52.272;9.746;2023-07-20T07:50:59;21.70;67.00
16517;DHT22;8371;52.272;9.746;2023-07-20T07:53:25;21.80;67.00
16517;DHT22;8371;52.272;9.746;2023-07-20T07:55:52;21.90;66.90
16517;DHT22;8371;52.272;9.746;2023-07-20T07:58:18;22.00;66.10
16517;DHT22;8371;52.272;9.746;2023-07-20T08:00:43;22.10;65.60
16517;DHT22;8371;52.272;9.746;2023-07-20T08:03:09;22.20;65.90
16517;DHT22;8371;52.272;9.746;2023-07-20T08:05:35;22.30;66.00
16517;DHT22;8371;52.272;9.746;2023-07-20T08:08:02;22.40;65.90
16517;DHT22;8371;52.272;9.746;2023-07-20T08:10:29;22.60;65.20
16517;DHT22;8371;52.272;9.746;2023-07-20T08:12:55;22.70;64.80
16517;DHT22;8371;52.272;9.746;2023-07-20T08:15:21;22.70;64.90
16517;DHT22;8371;52.272;9.746;2023-07-20T08:17:47;22.90;64.80
16517;DHT22;8371;52.272;9.746;2023-07-20T08:20:14;22.90;64.50
16517;DHT22;8371;52.272;9.746;2023-07-20T08:22:41;23.00;64.30
16517;DHT22;8371;52.272;9.746;2023-07-20T08:25:08;23.20;64.40
16517;DHT22;8371;52.272;9.746;2023-07-20T08:27:34;23.30;63.90
16517;DHT22;8371;52.272;9.746;2023-07-20T08:30:00;23.40;62.90
16517;DHT22;8371;52.272;9.746;2023-07-20T08:32:26;23.60;62.90
16517;DHT22;8371;52.272;9.746;2023-07-20T08:34:52;23.70;62.20
16517;DHT22;8371;52.272;9.746;2023-07-20T08:37:18;23.80;61.90
16517;DHT22;8371;52.272;9.746;2023-07-20T08:39:44;24.00;61.20
16517;DHT22;8371;52.272;9.746;2023-07-20T08:42:10;24.10;61.50
16517;DHT22;8371;52.272;9.746;2023-07-20T08:44:37;24.30;61.30
16517;DHT22;8371;52.272;9.746;2023-07-20T08:47:04;24.50;61.40
16517;DHT22;8371;52.272;9.746;2023-07-20T08:49:31;24.60;61.30
16517;DHT22;8371;52.272;9.746;2023-07-20T08:51:58;24.80;61.00
16517;DHT22;8371;52.272;9.746;2023-07-20T08:54:27;25.00;60.10
16517;DHT22;8371;52.272;9.746;2023-07-20T08:56:56;25.10;59.60
16517;DHT22;8371;52.272;9.746;2023-07-20T08:59:23;25.40;58.90
16517;DHT22;8371;52.272;9.746;2023-07-20T09:01:51;25.40;58.60
16517;DHT22;8371;52.272;9.746;2023-07-20T09:04:18;25.50;58.20
16517;DHT22;8371;52.272;9.746;2023-07-20T09:06:44;25.60;58.20
16517;DHT22;8371;52.272;9.746;2023-07-20T09:09:10;25.70;58.10
16517;DHT22;8371;52.272;9.746;2023-07-20T09:11:36;25.90;57.70
16517;DHT22;8371;52.272;9.746;2023-07-20T09:14:06;26.10;57.20
16517;DHT22;8371;52.272;9.746;2023-07-20T09:16:48;26.20;57.20
16517;DHT22;8371;52.272;9.746;2023-07-20T09:19:16;26.30;56.70
16517;DHT22;8371;52.272;9.746;2023-07-20T09:21:48;26.50;56.10
16517;DHT22;8371;52.272;9.746;2023-07-20T09:24:14;26.60;55.50
16517;DHT22;8371;52.272;9.746;2023-07-20T09:26:41;26.70;55.50
16517;DHT22;8371;52.272;9.746;2023-07-20T09:29:08;26.80;55.40
16517;DHT22;8371;52.272;9.746;2023-07-20T09:31:36;27.00;55.10
16517;DHT22;8371;52.272;9.746;2023-07-20T09:34:04;27.10;54.60
16517;DHT22;8371;52.272;9.746;2023-07-20T09:36:35;27.20;53.80
16517;DHT22;8371;52.272;9.746;2023-07-20T09:39:11;27.30;53.70
16517;DHT22;8371;52.272;9.746;2023-07-20T09:41:40;27.30;53.80
16517;DHT22;8371;52.272;9.746;2023-07-20T09:44:10;27.40;53.30
16517;DHT22;8371;52.272;9.746;2023-07-20T09:46:44;27.50;53.00
16517;DHT22;8371;52.272;9.746;2023-07-20T09:49:10;27.60;53.10
16517;DHT22;8371;52.272;9.746;2023-07-20T09:51:36;27.70;52.50
16517;DHT22;8371;52.272;9.746;2023-07-20T09:54:03;27.70;52.10
16517;DHT22;8371;52.272;9.746;2023-07-20T09:56:30;27.70;51.90
16517;DHT22;8371;52.272;9.746;2023-07-20T09:58:56;27.70;51.70
16517;DHT22;8371;52.272;9.746;2023-07-20T10:01:23;27.80;51.70
16517;DHT22;8371;52.272;9.746;2023-07-20T10:03:51;27.80;51.60
16517;DHT22;8371;52.272;9.746;2023-07-20T10:06:21;27.80;51.60
16517;DHT22;8371;52.272;9.746;2023-07-20T10:08:52;27.80;51.30
16517;DHT22;8371;52.272;9.746;2023-07-20T10:11:17;27.80;50.80
16517;DHT22;8371;52.272;9.746;2023-07-20T10:13:46;27.70;50.10
16517;DHT22;8371;52.272;9.746;2023-07-20T10:16:26;27.70;50.50
16517;DHT22;8371;52.272;9.746;2023-07-20T10:19:26;27.70;50.50
16517;DHT22;8371;52.272;9.746;2023-07-20T10:22:07;27.80;50.30
16517;DHT22;8371;52.272;9.746;2023-07-20T10:24:34;27.90;50.90
16517;DHT22;8371;52.272;9.746;2023-07-20T10:27:00;27.90;50.60
16517;DHT22;8371;52.272;9.746;2023-07-20T10:29:26;28.00;50.10
16517;DHT22;8371;52.272;9.746;2023-07-20T10:31:54;28.10;50.20
16517;DHT22;8371;52.272;9.746;2023-07-20T10:34:21;28.20;49.80
16517;DHT22;8371;52.272;9.746;2023-07-20T10:36:47;28.30;49.80
16517;DHT22;8371;52.272;9.746;2023-07-20T10:39:30;28.30;49.70
16517;DHT22;8371;52.272;9.746;2023-07-20T10:42:07;28.30;48.90
16517;DHT22;8371;52.272;9.746;2023-07-20T10:44:33;28.40;49.20
16517;DHT22;8371;52.272;9.746;2023-07-20T10:47:03;28.50;49.20
16517;DHT22;8371;52.272;9.746;2023-07-20T10:49:33;28.60;49.20
16517;DHT22;8371;52.272;9.746;2023-07-20T10:52:00;28.70;48.70
16517;DHT22;8371;52.272;9.746;2023-07-20T10:57:42;28.80;47.80
16517;DHT22;8371;52.272;9.746;2023-07-20T11:02:07;28.80;47.90
16517;DHT22;8371;52.272;9.746;2023-07-20T11:04:44;28.80;47.60
16517;DHT22;8371;52.272;9.746;2023-07-20T11:07:10;28.80;47.60
16517;DHT22;8371;52.272;9.746;2023-07-20T11:09:38;28.80;47.30
16517;DHT22;8371;52.272;9.746;2023-07-20T11:12:16;28.80;46.90
16517;DHT22;8371;52.272;9.746;2023-07-20T11:14:52;28.80;47.00
16517;DHT22;8371;52.272;9.746;2023-07-20T11:17:15;28.70;46.50
16517;DHT22;8371;52.272;9.746;2023-07-20T11:19:43;28.60;46.30
16517;DHT22;8371;52.272;9.746;2023-07-20T11:22:09;28.40;46.00
16517;DHT22;8371;52.272;9.746;2023-07-20T11:24:40;28.20;45.80
16517;DHT22;8371;52.272;9.746;2023-07-20T11:27:06;28.00;45.70
16517;DHT22;8371;52.272;9.746;2023-07-20T11:29:31;27.80;46.00
16517;DHT22;8371;52.272;9.746;2023-07-20T11:31:57;27.60;46.00
16517;DHT22;8371;52.272;9.746;2023-07-20T11:34:26;27.40;46.20
16517;DHT22;8371;52.272;9.746;2023-07-20T11:36:53;27.30;46.50
16517;DHT22;8371;52.272;9.746;2023-07-20T11:39:21;27.20;46.80
16517;DHT22;8371;52.272;9.746;2023-07-20T11:41:53;27.20;46.90
16517;DHT22;8371;52.272;9.746;2023-07-20T11:44:22;27.30;47.20
16517;DHT22;8371;52.272;9.746;2023-07-20T11:47:12;27.30;46.90
16517;DHT22;8371;52.272;9.746;2023-07-20T11:49:41;27.30;46.60
16517;DHT22;8371;52.272;9.746;2023-07-20T11:52:08;27.30;46.70
16517;DHT22;8371;52.272;9.746;2023-07-20T11:54:35;27.30;46.30
16517;DHT22;8371;52.272;9.746;2023-07-20T11:57:03;27.30;46.50
16517;DHT22;8371;52.272;9.746;2023-07-20T11:59:29;27.30;45.80
16517;DHT22;8371;52.272;9.746;2023-07-20T12:01:55;27.20;46.00
16517;DHT22;8371;52.272;9.746;2023-07-20T12:04:22;27.20;46.20
16517;DHT22;8371;52.272;9.746;2023-07-20T12:06:48;27.20;46.70
16517;DHT22;8371;52.272;9.746;2023-07-20T12:09:16;27.20;46.90
16517;DHT22;8371;52.272;9.746;2023-07-20T12:11:43;27.30;47.20
16517;DHT22;8371;52.272;9.746;2023-07-20T12:14:10;27.50;47.10
16517;DHT22;8371;52.272;9.746;2023-07-20T12:16:37;27.60;46.40
16517;DHT22;8371;52.272;9.746;2023-07-20T12:19:08;27.70;46.40
16517;DHT22;8371;52.272;9.746;2023-07-20T12:21:35;27.80;46.30
16517;DHT22;8371;52.272;9.746;2023-07-20T12:24:06;28.00;46.20
16517;DHT22;8371;52.272;9.746;2023-07-20T12:26:33;28.10;46.40
16517;DHT22;8371;52.272;9.746;2023-07-20T12:28:59;28.20;46.50
16517;DHT22;8371;52.272;9.746;2023-07-20T12:31:26;28.30;46.20
16517;DHT22;8371;52.272;9.746;2023-07-20T12:33:53;28.40;45.80
16517;DHT22;8371;52.272;9.746;2023-07-20T12:36:21;28.60;45.50
16517;DHT22;8371;52.272;9.746;2023-07-20T12:38:46;28.70;45.40
16517;DHT22;8371;52.272;9.746;2023-07-20T12:41:13;28.80;45.10
16517;DHT22;8371;52.272;9.746;2023-07-20T12:43:44;28.90;45.00
16517;DHT22;8371;52.272;9.746;2023-07-20T12:46:08;29.00;45.20
16517;DHT22;8371;52.272;9.746;2023-07-20T12:48:35;29.10;44.50
16517;DHT22;8371;52.272;9.746;2023-07-20T12:51:02;29.10;44.20
16517;DHT22;8371;52.272;9.746;2023-07-20T12:53:29;29.00;43.90
16517;DHT22;8371;52.272;9.746;2023-07-20T12:55:54;28.90;44.00
16517;DHT22;8371;52.272;9.746;2023-07-20T12:58:20;28.90;44.10
16517;DHT22;8371;52.272;9.746;2023-07-20T13:00:46;28.90;43.10
16517;DHT22;8371;52.272;9.746;2023-07-20T13:03:11;28.90;43.30
16517;DHT22;8371;52.272;9.746;2023-07-20T13:05:37;28.90;43.40
16517;DHT22;8371;52.272;9.746;2023-07-20T13:08:03;28.90;43.40
16517;DHT22;8371;52.272;9.746;2023-07-20T13:10:29;29.00;43.30
16517;DHT22;8371;52.272;9.746;2023-07-20T13:12:55;29.00;43.30
16517;DHT22;8371;52.272;9.746;2023-07-20T13:15:24;29.00;43.20
16517;DHT22;8371;52.272;9.746;2023-07-20T13:17:50;29.00;43.20
16517;DHT22;8371;52.272;9.746;2023-07-20T13:20:16;28.90;42.80
16517;DHT22;8371;52.272;9.746;2023-07-20T13:22:43;28.90;42.80
16517;DHT22;8371;52.272;9.746;2023-07-20T13:25:09;28.90;42.80
16517;DHT22;8371;52.272;9.746;2023-07-20T13:27:35;28.80;42.80
16517;DHT22;8371;52.272;9.746;2023-07-20T13:30:02;28.80;42.90
16517;DHT22;8371;52.272;9.746;2023-07-20T13:32:30;28.70;42.90
16517;DHT22;8371;52.272;9.746;2023-07-20T13:34:55;28.70;43.10
16517;DHT22;8371;52.272;9.746;2023-07-20T13:37:21;28.60;42.70
16517;DHT22;8371;52.272;9.746;2023-07-20T13:39:47;28.50;42.30
16517;DHT22;8371;52.272;9.746;2023-07-20T13:42:12;28.50;42.60
16517;DHT22;8371;52.272;9.746;2023-07-20T13:44:38;28.40;42.60
16517;DHT22;8371;52.272;9.746;2023-07-20T13:47:04;28.40;42.60
16517;DHT22;8371;52.272;9.746;2023-07-20T13:49:31;28.40;42.90
16517;DHT22;8371;52.272;9.746;2023-07-20T13:51:57;28.40;42.80
16517;DHT22;8371;52.272;9.746;2023-07-20T13:54:24;28.30;42.50
16517;DHT22;8371;52.272;9.746;2023-07-20T13:56:49;28.30;42.50
16517;DHT22;8371;52.272;9.746;2023-07-20T13:59:15;28.20;42.30
16517;DHT22;8371;52.272;9.746;2023-07-20T14:01:41;28.10;42.20
16517;DHT22;8371;52.272;9.746;2023-07-20T14:04:07;28.00;42.00
16517;DHT22;8371;52.272;9.746;2023-07-20T14:06:34;27.90;41.80
16517;DHT22;8371;52.272;9.746;2023-07-20T14:09:01;27.70;41.90
16517;DHT22;8371;52.272;9.746;2023-07-20T14:11:27;27.60;41.90
16517;DHT22;8371;52.272;9.746;2023-07-20T14:13:53;27.40;41.80
16517;DHT22;8371;52.272;9.746;2023-07-20T14:16:21;27.20;41.90
16517;DHT22;8371;52.272;9.746;2023-07-20T14:18:47;27.10;42.40
16517;DHT22;8371;52.272;9.746;2023-07-20T14:21:16;27.00;42.60
16517;DHT22;8371;52.272;9.746;2023-07-20T14:23:44;26.90;42.50
16517;DHT22;8371;52.272;9.746;2023-07-20T14:26:10;26.80;42.50
16517;DHT22;8371;52.272;9.746;2023-07-20T14:28:35;26.80;42.40
16517;DHT22;8371;52.272;9.746;2023-07-20T14:31:01;26.80;42.80
16517;DHT22;8371;52.272;9.746;2023-07-20T14:33:27;26.90;42.90
16517;DHT22;8371;52.272;9.746;2023-07-20T14:35:53;27.00;42.90
16517;DHT22;8371;52.272;9.746;2023-07-20T14:38:18;27.20;43.80
16517;DHT22;8371;52.272;9.746;2023-07-20T14:40:45;27.40;43.50
16517;DHT22;8371;52.272;9.746;2023-07-20T14:43:11;27.60;42.90
16517;DHT22;8371;52.272;9.746;2023-07-20T14:45:37;27.80;42.40
16517;DHT22;8371;52.272;9.746;2023-07-20T14:48:03;28.00;42.40
16517;DHT22;8371;52.272;9.746;2023-07-20T14:50:29;28.10;42.50
16517;DHT22;8371;52.272;9.746;2023-07-20T14:52:55;28.10;42.10
16517;DHT22;8371;52.272;9.746;2023-07-20T14:55:21;28.40;42.30
16517;DHT22;8371;52.272;9.746;2023-07-20T14:57:48;28.50;42.80
16517;DHT22;8371;52.272;9.746;2023-07-20T15:00:14;28.50;41.90
16517;DHT22;8371;52.272;9.746;2023-07-20T15:02:40;28.80;41.90
16517;DHT22;8371;52.272;9.746;2023-07-20T15:05:10;28.90;41.80
16517;DHT22;8371;52.272;9.746;2023-07-20T15:07:36;29.10;41.80
16517;DHT22;8371;52.272;9.746;2023-07-20T15:10:06;29.20;41.60
16517;DHT22;8371;52.272;9.746;2023-07-20T15:12:32;29.40;41.50
16517;DHT22;8371;52.272;9.746;2023-07-20T15:15:06;29.50;41.40
16517;DHT22;8371;52.272;9.746;2023-07-20T15:17:32;29.60;41.30
16517;DHT22;8371;52.272;9.746;2023-07-20T15:19:58;29.80;41.20
16517;DHT22;8371;52.272;9.746;2023-07-20T15:22:25;30.00;41.10
16517;DHT22;8371;52.272;9.746;2023-07-20T15:24:51;30.10;40.80
16517;DHT22;8371;52.272;9.746;2023-07-20T15:27:17;30.20;40.80
16517;DHT22;8371;52.272;9.746;2023-07-20T15:29:43;30.40;40.40
16517;DHT22;8371;52.272;9.746;2023-07-20T15:32:09;30.50;39.90
16517;DHT22;8371;52.272;9.746;2023-07-20T15:34:35;30.40;39.60
16517;DHT22;8371;52.272;9.746;2023-07-20T15:37:01;30.30;39.10
16517;DHT22;8371;52.272;9.746;2023-07-20T15:39:28;30.10;38.80
16517;DHT22;8371;52.272;9.746;2023-07-20T15:41:55;29.90;38.70
16517;DHT22;8371;52.272;9.746;2023-07-20T15:44:20;29.70;38.70
16517;DHT22;8371;52.272;9.746;2023-07-20T15:46:47;29.50;38.70
16517;DHT22;8371;52.272;9.746;2023-07-20T15:49:14;29.20;38.70
16517;DHT22;8371;52.272;9.746;2023-07-20T15:51:39;28.90;38.80
16517;DHT22;8371;52.272;9.746;2023-07-20T15:54:12;28.70;38.90
16517;DHT22;8371;52.272;9.746;2023-07-20T15:56:37;28.40;39.00
16517;DHT22;8371;52.272;9.746;2023-07-20T15:59:03;28.20;39.20